createdAt,value
2022-11-04T00:02:14.850Z,9.35
2022-11-04T00:04:44.326Z,9.45
2022-11-04T00:07:25.981Z,9.38
2022-11-04T00:09:55.419Z,9.19
2022-11-04T00:12:25.058Z,9.16
2022-11-04T00:14:54.537Z,9.21
2022-11-04T00:17:23.884Z,9.20
2022-11-04T00:20:07.278Z,9.18
2022-11-04T00:22:49.315Z,9.35
2022-11-04T00:25:34.196Z,9.23
2022-11-04T00:28:20.974Z,9.23
2022-11-04T00:30:50.382Z,9.27
2022-11-04T00:33:25.788Z,9.36
2022-11-04T00:35:56.805Z,9.39
2022-11-04T00:38:27.268Z,9.43
2022-11-04T00:40:56.644Z,9.32
2022-11-04T00:43:26.018Z,9.30
2022-11-04T00:45:55.412Z,9.32
2022-11-04T00:48:27.406Z,9.29
2022-11-04T00:50:57.280Z,9.23
2022-11-04T00:53:26.708Z,9.29
2022-11-04T00:55:56.128Z,9.29
2022-11-04T00:58:25.488Z,9.29
2022-11-04T01:00:54.927Z,9.26
2022-11-04T01:03:26.912Z,9.28
2022-11-04T01:05:56.338Z,9.34
2022-11-04T01:08:26.007Z,9.42
2022-11-04T01:10:55.507Z,9.44
2022-11-04T01:13:24.966Z,9.42
2022-11-04T01:15:54.332Z,9.41
2022-11-04T01:18:23.707Z,9.50
2022-11-04T01:20:55.725Z,9.69
2022-11-04T01:23:25.091Z,9.56
2022-11-04T01:25:54.471Z,9.57
2022-11-04T01:28:23.878Z,9.52
2022-11-04T01:30:53.262Z,9.55
2022-11-04T01:33:22.629Z,9.46
2022-11-04T01:35:52.000Z,9.30
2022-11-04T01:38:23.995Z,9.20
2022-11-04T01:40:53.395Z,9.31
2022-11-04T01:43:24.780Z,9.32
2022-11-04T01:45:56.606Z,9.32
2022-11-04T01:48:28.924Z,9.28
2022-11-04T01:50:58.509Z,9.25
2022-11-04T01:53:33.238Z,9.21
2022-11-04T01:56:05.335Z,9.24
2022-11-04T01:58:36.822Z,9.36
2022-11-04T02:01:06.243Z,9.30
2022-11-04T02:03:39.427Z,9.21
2022-11-04T02:06:10.026Z,9.20
2022-11-04T02:08:42.471Z,9.22
2022-11-04T02:11:31.823Z,9.27
2022-11-04T02:13:58.764Z,9.27
2022-11-04T02:16:34.472Z,9.24
2022-11-04T02:19:09.601Z,9.25
2022-11-04T02:22:12.906Z,9.30
2022-11-04T02:25:17.820Z,9.29
2022-11-04T02:28:02.706Z,9.26
2022-11-04T02:30:37.345Z,9.16
2022-11-04T02:33:19.216Z,9.18
2022-11-04T02:35:56.668Z,9.22
2022-11-04T02:38:36.935Z,9.26
2022-11-04T02:41:13.000Z,9.37
2022-11-04T02:43:50.651Z,9.28
2022-11-04T02:46:26.259Z,9.17
2022-11-04T02:49:00.456Z,9.06
2022-11-04T02:51:32.332Z,9.03
2022-11-04T02:54:07.357Z,9.16
2022-11-04T02:56:40.013Z,9.11
2022-11-04T02:59:13.644Z,9.05
2022-11-04T03:01:47.469Z,9.07
2022-11-04T03:04:18.833Z,8.97
2022-11-04T03:06:51.591Z,9.02
2022-11-04T03:09:22.536Z,9.08
2022-11-04T03:11:55.457Z,8.91
2022-11-04T03:14:31.344Z,8.88
2022-11-04T03:17:06.716Z,9.00
2022-11-04T03:19:42.811Z,8.94
2022-11-04T03:22:14.469Z,9.11
2022-11-04T03:24:45.856Z,9.23
2022-11-04T03:27:23.174Z,9.20
2022-11-04T03:29:58.253Z,9.15
2022-11-04T03:32:35.668Z,9.22
2022-11-04T03:35:05.253Z,9.18
2022-11-04T03:37:35.283Z,9.16
2022-11-04T03:40:04.920Z,9.01
2022-11-04T03:42:35.312Z,8.99
2022-11-04T03:45:04.869Z,9.04
2022-11-04T03:47:36.995Z,9.01
2022-11-04T03:50:10.085Z,9.09
2022-11-04T03:52:39.697Z,9.05
2022-11-04T03:55:10.880Z,9.13
2022-11-04T03:57:49.245Z,9.19
2022-11-04T04:00:19.782Z,9.26
2022-11-04T04:03:01.312Z,9.16
2022-11-04T04:05:33.446Z,9.16
2022-11-04T04:08:13.616Z,9.20
2022-11-04T04:10:46.191Z,9.25
2022-11-04T04:13:22.262Z,9.26
2022-11-04T04:15:56.593Z,9.40
2022-11-04T04:18:33.558Z,9.37
2022-11-04T04:21:05.587Z,9.34
2022-11-04T04:23:49.464Z,9.36
2022-11-04T04:26:32.306Z,9.40
2022-11-04T04:29:03.267Z,9.48
2022-11-04T04:31:45.812Z,9.53
2022-11-04T04:34:18.014Z,9.56
2022-11-04T04:36:50.357Z,9.61
2022-11-04T04:39:34.708Z,9.62
2022-11-04T04:42:16.668Z,9.68
2022-11-04T04:44:58.678Z,9.78
2022-11-04T04:47:30.568Z,9.83
2022-11-04T04:50:03.603Z,9.86
2022-11-04T04:52:35.247Z,9.84
2022-11-04T04:55:04.608Z,9.86
2022-11-04T04:57:33.991Z,9.90
2022-11-04T05:00:03.544Z,9.90
2022-11-04T05:02:33.020Z,9.91
2022-11-04T05:05:05.292Z,9.89
2022-11-04T05:07:34.770Z,9.94
2022-11-04T05:10:04.286Z,9.92
2022-11-04T05:12:53.795Z,9.90
2022-11-04T05:15:23.203Z,9.92
2022-11-04T05:17:56.657Z,9.90
2022-11-04T05:20:30.341Z,9.91
2022-11-04T05:23:00.139Z,9.88
2022-11-04T05:25:29.520Z,9.91
2022-11-04T05:28:02.626Z,9.89
2022-11-04T05:30:32.141Z,9.89
2022-11-04T05:33:04.779Z,9.85
2022-11-04T05:35:37.537Z,9.85
2022-11-04T05:38:06.948Z,9.84
2022-11-04T05:40:36.342Z,9.83
2022-11-04T05:43:06.019Z,9.85
2022-11-04T05:45:35.596Z,9.81
2022-11-04T05:48:07.721Z,9.80
2022-11-04T05:50:39.661Z,9.80
2022-11-04T05:53:09.376Z,9.79
2022-11-04T05:55:39.017Z,9.79
2022-11-04T05:58:08.670Z,9.78
2022-11-04T06:00:38.561Z,9.76
2022-11-04T06:03:10.722Z,9.77
2022-11-04T06:05:45.634Z,9.76
2022-11-04T06:08:15.271Z,9.76
2022-11-04T06:10:45.815Z,9.73
2022-11-04T06:13:15.288Z,9.75
2022-11-04T06:15:44.673Z,9.77
2022-11-04T06:18:14.571Z,9.73
2022-11-04T06:20:46.524Z,9.72
2022-11-04T06:23:15.976Z,9.69
2022-11-04T06:25:46.670Z,9.69
2022-11-04T06:28:16.096Z,9.66
2022-11-04T06:30:45.519Z,9.61
2022-11-04T06:33:15.248Z,9.60
2022-11-04T06:35:47.207Z,9.62
2022-11-04T06:38:16.769Z,9.62
2022-11-04T06:40:46.172Z,9.61
2022-11-04T06:43:15.547Z,9.60
2022-11-04T06:45:45.035Z,9.56
2022-11-04T06:48:14.404Z,9.54
2022-11-04T06:50:43.812Z,9.52
2022-11-04T06:53:15.950Z,9.55
2022-11-04T06:55:45.770Z,9.52
2022-11-04T06:58:15.265Z,9.50
2022-11-04T07:00:45.731Z,9.50
2022-11-04T07:03:15.531Z,9.47
2022-11-04T07:05:44.891Z,9.46
2022-11-04T07:08:17.098Z,9.46
2022-11-04T07:10:46.519Z,9.45
2022-11-04T07:13:16.782Z,9.47
2022-11-04T07:15:46.271Z,9.45
2022-11-04T07:18:16.104Z,9.47
2022-11-04T07:20:45.541Z,9.40
2022-11-04T07:23:17.572Z,9.39
2022-11-04T07:25:47.042Z,9.31
2022-11-04T07:28:16.708Z,9.32
2022-11-04T07:30:48.489Z,9.31
2022-11-04T07:33:18.312Z,9.29
2022-11-04T07:35:47.747Z,9.23
2022-11-04T07:38:19.775Z,9.17
2022-11-04T07:40:49.911Z,9.16
2022-11-04T07:43:19.302Z,9.12
2022-11-04T07:45:48.764Z,9.14
2022-11-04T07:48:18.191Z,9.18
2022-11-04T07:50:47.583Z,9.15
2022-11-04T07:53:19.590Z,9.14
2022-11-04T07:55:50.972Z,9.15
2022-11-04T07:58:20.752Z,9.16
2022-11-04T08:00:50.195Z,9.17
2022-11-04T08:03:19.738Z,9.20
2022-11-04T08:05:49.173Z,9.21
2022-11-04T08:08:21.152Z,9.26
2022-11-04T08:10:55.213Z,9.26
2022-11-04T08:13:24.591Z,9.24
2022-11-04T08:15:54.001Z,9.28
2022-11-04T08:18:23.403Z,9.31
2022-11-04T08:20:53.853Z,9.32
2022-11-04T08:23:25.876Z,9.29
2022-11-04T08:25:55.310Z,9.31
2022-11-04T08:28:24.699Z,9.32
2022-11-04T08:30:58.621Z,9.30
2022-11-04T08:33:28.848Z,9.29
2022-11-04T08:36:01.305Z,9.26
2022-11-04T08:38:34.630Z,9.28
2022-11-04T08:41:06.764Z,9.27
2022-11-04T08:43:36.839Z,9.27
2022-11-04T08:46:08.696Z,9.33
2022-11-04T08:48:39.266Z,9.35
2022-11-04T08:51:14.027Z,9.37
2022-11-04T08:53:46.011Z,9.36
2022-11-04T08:56:16.976Z,9.34
2022-11-04T08:58:46.441Z,9.34
2022-11-04T09:01:16.415Z,9.35
2022-11-04T09:03:45.966Z,9.37
2022-11-04T09:06:19.496Z,9.38
2022-11-04T09:08:52.282Z,9.36
2022-11-04T09:11:21.687Z,9.42
2022-11-04T09:13:51.152Z,9.47
2022-11-04T09:16:20.512Z,9.46
2022-11-04T09:18:49.948Z,9.50
2022-11-04T09:21:19.331Z,9.53
2022-11-04T09:23:51.336Z,9.56
2022-11-04T09:26:20.888Z,9.64
2022-11-04T09:28:50.288Z,9.66
2022-11-04T09:31:21.359Z,9.73
2022-11-04T09:33:50.994Z,9.76
2022-11-04T09:36:20.752Z,9.69
2022-11-04T09:38:52.757Z,9.75
2022-11-04T09:41:42.178Z,9.73
2022-11-04T09:44:20.495Z,9.70
2022-11-04T09:46:50.877Z,9.66
2022-11-04T09:49:20.296Z,9.66
2022-11-04T09:51:54.801Z,9.73
2022-11-04T09:54:29.452Z,9.76
2022-11-04T09:57:01.521Z,9.77
2022-11-04T09:59:32.911Z,9.72
2022-11-04T10:02:20.722Z,9.79
2022-11-04T10:04:58.631Z,9.94
2022-11-04T10:07:40.637Z,9.82
2022-11-04T10:10:17.087Z,9.91
2022-11-04T10:13:02.015Z,9.91
2022-11-04T10:15:50.921Z,9.88
2022-11-04T10:18:32.193Z,9.92
2022-11-04T10:21:07.962Z,9.93
2022-11-04T10:23:41.370Z,9.99
2022-11-04T10:26:18.706Z,10.09
2022-11-04T10:28:52.240Z,10.02
2022-11-04T10:31:22.137Z,10.13
2022-11-04T10:33:54.665Z,10.13
2022-11-04T10:36:24.333Z,10.12
2022-11-04T10:38:55.626Z,10.13
2022-11-04T10:41:36.342Z,10.24
2022-11-04T10:44:07.936Z,10.24
2022-11-04T10:46:45.645Z,10.27
2022-11-04T10:50:00.258Z,10.45
2022-11-04T10:52:35.895Z,10.49
2022-11-04T10:55:05.568Z,10.54
2022-11-04T10:57:37.591Z,10.38
2022-11-04T11:00:08.565Z,10.42
2022-11-04T11:02:47.295Z,10.49
2022-11-04T11:05:24.348Z,10.59
2022-11-04T11:07:56.182Z,10.76
2022-11-04T11:10:27.825Z,10.96
2022-11-04T11:13:02.171Z,11.04
2022-11-04T11:15:35.584Z,11.08
2022-11-04T11:18:16.135Z,11.24
2022-11-04T11:20:46.175Z,10.96
2022-11-04T11:23:43.991Z,11.19
2022-11-04T11:26:15.820Z,11.24
2022-11-04T11:28:55.817Z,11.21
2022-11-04T11:31:28.248Z,11.33
2022-11-04T11:33:59.281Z,11.27
2022-11-04T11:36:30.168Z,11.20
2022-11-04T11:39:04.210Z,11.31
2022-11-04T11:41:39.554Z,11.21
2022-11-04T11:44:27.260Z,11.39
2022-11-04T11:47:01.570Z,11.35
2022-11-04T11:49:34.341Z,11.47
2022-11-04T11:52:27.658Z,11.25
2022-11-04T11:55:01.885Z,11.32
2022-11-04T11:57:44.747Z,11.40
2022-11-04T12:03:10.551Z,11.60
2022-11-04T12:11:39.864Z,11.38
2022-11-04T12:14:15.708Z,11.19
2022-11-04T12:16:53.772Z,11.20
2022-11-04T12:19:40.728Z,11.46
2022-11-04T12:22:16.168Z,11.63
2022-11-04T12:24:55.936Z,11.94
2022-11-04T12:27:31.571Z,12.06
2022-11-04T12:30:08.016Z,12.45
2022-11-04T12:32:54.878Z,12.29
2022-11-04T12:35:33.512Z,12.27
2022-11-04T12:38:15.997Z,11.80
2022-11-04T12:41:18.693Z,11.74
2022-11-04T12:43:44.979Z,11.74
2022-11-04T12:46:20.364Z,11.86
2022-11-04T12:49:11.079Z,12.09
2022-11-04T12:51:47.101Z,12.38
2022-11-04T12:54:45.603Z,12.52
2022-11-04T12:57:21.633Z,12.88
2022-11-04T13:00:04.806Z,12.55
2022-11-04T13:02:39.716Z,12.12
2022-11-04T13:05:24.481Z,12.22
2022-11-04T13:07:59.035Z,12.33
2022-11-04T13:10:42.884Z,12.52
2022-11-04T13:13:13.923Z,12.58
2022-11-04T13:15:48.615Z,12.42
2022-11-04T13:18:20.392Z,11.99
2022-11-04T13:21:02.106Z,11.87
2022-11-04T13:23:39.438Z,11.82
2022-11-04T13:26:12.647Z,11.89
2022-11-04T13:28:43.180Z,12.06
2022-11-04T13:31:19.576Z,12.13
2022-11-04T13:33:54.075Z,12.02
2022-11-04T13:36:33.163Z,12.17
2022-11-04T13:39:04.702Z,12.14
2022-11-04T13:42:01.525Z,12.11
2022-11-04T13:44:32.867Z,12.06
2022-11-04T13:47:05.276Z,11.96
2022-11-04T13:49:37.499Z,12.03
2022-11-04T13:52:11.872Z,11.94
2022-11-04T13:54:43.854Z,11.84
2022-11-04T13:57:16.321Z,11.68
2022-11-04T13:59:46.654Z,11.65
2022-11-04T14:02:41.687Z,11.65
2022-11-04T14:05:56.590Z,11.68
2022-11-04T14:08:28.814Z,11.58
2022-11-04T14:11:13.047Z,11.57
2022-11-04T14:13:49.766Z,11.61
2022-11-04T14:16:40.810Z,11.47
2022-11-04T14:20:00.935Z,11.41
2022-11-04T14:22:35.461Z,11.40
2022-11-04T14:25:26.142Z,11.35
2022-11-04T14:27:56.931Z,11.28
2022-11-04T14:30:48.475Z,11.14
2022-11-04T14:33:37.818Z,10.89
2022-11-04T14:36:27.846Z,10.86
2022-11-04T14:38:59.623Z,10.91
2022-11-04T14:41:54.551Z,10.85
2022-11-04T14:44:31.963Z,10.75
2022-11-04T14:47:04.084Z,10.67
2022-11-04T14:49:46.796Z,10.65
2022-11-04T14:52:23.699Z,10.65
2022-11-04T14:54:57.341Z,10.72
2022-11-04T14:57:32.151Z,10.86
2022-11-04T15:00:01.703Z,10.81
2022-11-04T15:02:33.925Z,10.75
2022-11-04T15:05:04.554Z,10.79
2022-11-04T15:07:39.822Z,10.69
2022-11-04T15:10:24.507Z,10.50
2022-11-04T15:13:01.516Z,10.49
2022-11-04T15:15:39.837Z,10.38
2022-11-04T15:18:11.523Z,10.51
2022-11-04T15:20:44.220Z,10.49
2022-11-04T15:23:17.495Z,10.38
2022-11-04T15:25:48.640Z,10.31
2022-11-04T15:28:26.072Z,10.20
2022-11-04T15:31:08.344Z,10.19
2022-11-04T15:33:42.796Z,10.13
2022-11-04T15:36:15.584Z,10.03
2022-11-04T15:38:48.804Z,9.93
2022-11-04T15:41:34.403Z,10.03
2022-11-04T15:44:18.144Z,9.98
2022-11-04T15:46:56.029Z,9.98
2022-11-04T15:49:28.009Z,9.90
2022-11-04T15:52:01.898Z,9.84
2022-11-04T15:54:33.279Z,9.78
2022-11-04T15:57:05.964Z,9.73
2022-11-04T15:59:39.820Z,9.71
2022-11-04T16:02:23.129Z,9.74
2022-11-04T16:05:05.978Z,9.68
2022-11-04T16:07:39.117Z,9.67
2022-11-04T16:10:27.588Z,9.60
2022-11-04T16:12:59.167Z,9.55
2022-11-04T16:15:39.331Z,9.52
2022-11-04T16:18:26.076Z,9.53
2022-11-04T16:20:57.188Z,9.53
2022-11-04T16:23:28.636Z,9.51
2022-11-04T16:26:01.770Z,9.52
2022-11-04T16:28:32.066Z,9.47
2022-11-04T16:31:05.452Z,9.39
2022-11-04T16:33:34.887Z,9.39
2022-11-04T16:36:04.396Z,9.34
2022-11-04T16:38:33.860Z,9.30
2022-11-04T16:41:03.303Z,9.25
2022-11-04T16:43:33.015Z,9.23
2022-11-04T16:46:05.097Z,9.25
2022-11-04T16:48:34.563Z,9.18
2022-11-04T16:51:04.283Z,9.10
2022-11-04T16:53:33.790Z,9.07
2022-11-04T16:56:03.556Z,9.10
2022-11-04T16:58:33.749Z,9.12
2022-11-04T17:01:05.969Z,9.10
2022-11-04T17:03:35.533Z,9.10
2022-11-04T17:06:05.040Z,9.12
2022-11-04T17:08:34.561Z,9.12
2022-11-04T17:11:04.132Z,9.14
2022-11-04T17:13:36.531Z,9.09
2022-11-04T17:16:10.024Z,9.07
2022-11-04T17:18:39.624Z,9.10
2022-11-04T17:21:10.513Z,9.12
2022-11-04T17:23:39.958Z,9.13
2022-11-04T17:26:09.464Z,9.03
2022-11-04T17:28:38.947Z,9.02
2022-11-04T17:31:12.145Z,9.00
2022-11-04T17:33:41.680Z,8.94
2022-11-04T17:36:13.093Z,8.94
2022-11-04T17:38:42.655Z,8.99
2022-11-04T17:41:24.597Z,8.90
2022-11-04T17:44:03.185Z,8.96
2022-11-04T17:46:38.170Z,8.87
2022-11-04T17:49:10.944Z,8.88
2022-11-04T17:51:41.654Z,8.86
2022-11-04T17:54:11.656Z,8.74
2022-11-04T17:56:41.802Z,8.62
2022-11-04T17:59:12.416Z,8.57
2022-11-04T18:01:46.006Z,8.56
2022-11-04T18:04:17.202Z,8.47
2022-11-04T18:06:47.401Z,8.47
2022-11-04T18:09:17.811Z,8.46
2022-11-04T18:12:00.974Z,8.42
2022-11-04T18:14:30.631Z,8.34
2022-11-04T18:17:02.997Z,8.31
2022-11-04T18:19:32.856Z,8.30
2022-11-04T18:22:02.332Z,8.28
2022-11-04T18:24:31.844Z,8.24
2022-11-04T18:27:01.754Z,8.20
2022-11-04T18:29:31.711Z,8.12
2022-11-04T18:32:04.132Z,8.08
2022-11-04T18:34:33.633Z,8.06
2022-11-04T18:37:04.131Z,8.03
2022-11-04T18:39:33.603Z,7.97
2022-11-04T18:42:03.108Z,8.00
2022-11-04T18:44:32.578Z,8.00
2022-11-04T18:47:04.727Z,8.03
2022-11-04T18:49:34.213Z,7.95
2022-11-04T18:52:03.798Z,7.91
2022-11-04T18:54:33.362Z,7.86
2022-11-04T18:57:04.016Z,7.84
2022-11-04T18:59:33.476Z,7.70
2022-11-04T19:02:05.741Z,7.63
2022-11-04T19:04:36.275Z,7.60
2022-11-04T19:07:05.971Z,7.57
2022-11-04T19:09:50.720Z,7.55
2022-11-04T19:12:32.734Z,7.56
2022-11-04T19:15:04.129Z,7.61
2022-11-04T19:17:37.924Z,7.66
2022-11-04T19:20:12.951Z,7.65
2022-11-04T19:22:42.837Z,7.69
2022-11-04T19:25:12.745Z,7.60
2022-11-04T19:27:42.199Z,7.60
2022-11-04T19:30:14.040Z,7.55
2022-11-04T19:32:46.149Z,7.52
2022-11-04T19:35:15.709Z,7.49
2022-11-04T19:37:45.253Z,7.54
2022-11-04T19:40:15.196Z,7.49
2022-11-04T19:42:57.137Z,7.47
2022-11-04T19:45:26.631Z,7.45
2022-11-04T19:47:58.751Z,7.46
2022-11-04T19:50:28.205Z,7.44
2022-11-04T19:52:57.760Z,7.38
2022-11-04T19:55:27.258Z,7.37
2022-11-04T19:57:56.716Z,7.38
2022-11-04T20:00:26.634Z,7.35
2022-11-04T20:02:58.876Z,7.34
2022-11-04T20:05:28.744Z,7.35
2022-11-04T20:08:03.163Z,7.32
2022-11-04T20:10:38.139Z,7.29
2022-11-04T20:13:20.480Z,7.25
2022-11-04T20:15:50.010Z,7.25
2022-11-04T20:18:22.109Z,7.27
2022-11-04T20:20:51.952Z,7.24
2022-11-04T20:23:21.419Z,7.25
2022-11-04T20:25:52.563Z,7.19
2022-11-04T20:28:21.995Z,7.25
2022-11-04T20:30:51.416Z,7.19
2022-11-04T20:33:23.728Z,7.18
2022-11-04T20:35:53.875Z,7.15
2022-11-04T20:38:23.785Z,7.09
2022-11-04T20:40:53.209Z,7.03
2022-11-04T20:43:23.165Z,7.03
2022-11-04T20:45:52.933Z,7.01
2022-11-04T20:48:26.021Z,7.01
2022-11-04T20:50:55.580Z,6.94
2022-11-04T20:53:25.069Z,6.94
2022-11-04T20:55:54.687Z,6.95
2022-11-04T20:58:24.205Z,6.98
2022-11-04T21:00:53.784Z,7.00
2022-11-04T21:03:25.868Z,6.99
2022-11-04T21:05:55.372Z,6.97
2022-11-04T21:08:24.884Z,6.95
2022-11-04T21:10:54.416Z,6.94
2022-11-04T21:13:24.409Z,6.93
2022-11-04T21:15:54.151Z,6.87
2022-11-04T21:18:27.061Z,6.85
2022-11-04T21:20:57.722Z,6.81
2022-11-04T21:23:27.616Z,6.75
2022-11-04T21:25:58.629Z,6.74
2022-11-04T21:28:28.727Z,6.66
2022-11-04T21:30:58.412Z,6.59
2022-11-04T21:33:30.539Z,6.55
2022-11-04T21:36:04.276Z,6.52
2022-11-04T21:38:33.887Z,6.50
2022-11-04T21:41:04.439Z,6.46
2022-11-04T21:43:34.187Z,6.41
2022-11-04T21:46:05.262Z,6.37
2022-11-04T21:48:38.343Z,6.38
2022-11-04T21:51:09.654Z,6.34
2022-11-04T21:53:39.279Z,6.30
2022-11-04T21:56:11.008Z,6.27
2022-11-04T21:58:41.405Z,6.26
2022-11-04T22:01:11.647Z,6.30
2022-11-04T22:03:43.823Z,6.22
2022-11-04T22:06:14.544Z,6.19
2022-11-04T22:08:49.150Z,6.15
2022-11-04T22:11:21.298Z,6.13
2022-11-04T22:13:50.735Z,6.07
2022-11-04T22:16:22.495Z,6.06
2022-11-04T22:18:57.212Z,6.06
2022-11-04T22:21:28.124Z,6.04
2022-11-04T22:23:58.064Z,6.01
2022-11-04T22:26:29.642Z,6.04
2022-11-04T22:28:59.583Z,6.03
2022-11-04T22:31:30.399Z,5.99
2022-11-04T22:34:03.768Z,6.01
2022-11-04T22:36:34.675Z,5.93
2022-11-04T22:39:05.465Z,5.92
2022-11-04T22:41:35.988Z,5.90
2022-11-04T22:44:05.946Z,5.87
2022-11-04T22:46:36.030Z,5.81
2022-11-04T22:49:08.075Z,5.81
2022-11-04T22:51:37.559Z,5.83
2022-11-04T22:54:08.943Z,5.79
2022-11-04T22:56:38.796Z,5.75
2022-11-04T22:59:08.430Z,5.71
2022-11-04T23:01:38.112Z,5.67
2022-11-04T23:04:12.382Z,5.64
2022-11-04T23:06:42.515Z,5.64
2022-11-04T23:09:12.695Z,5.65
2022-11-04T23:11:54.781Z,5.60
2022-11-04T23:14:37.244Z,5.60
2022-11-04T23:17:28.076Z,5.59
2022-11-04T23:20:00.157Z,5.57
2022-11-04T23:22:42.071Z,5.54
2022-11-04T23:25:12.039Z,5.57
2022-11-04T23:27:56.052Z,5.51
2022-11-04T23:30:26.911Z,5.48
2022-11-04T23:32:57.886Z,5.43
2022-11-04T23:35:43.760Z,5.41
2022-11-04T23:38:13.443Z,5.41
2022-11-04T23:40:43.215Z,5.36
2022-11-04T23:43:10.388Z,5.32
2022-11-04T23:45:52.516Z,5.33
2022-11-04T23:48:34.507Z,5.31
2022-11-04T23:51:20.184Z,5.24
2022-11-04T23:54:02.813Z,5.26
2022-11-04T23:56:45.474Z,5.26
2022-11-04T23:59:28.660Z,5.21
